Time;durP1;ratioP1;P1;durP2;ratioP2;P2;SDS_P1;SDS_P2;PMS_P1;PMS_P2;Temp;Humidity;BMP_temperature;BMP_pressure;BME280_temperature;BME280_humidity;BME280_pressure;Samples;Min_cycle;Max_cycle;Signal;HPM_P1;HPM_P2
2021/07/03 00:01:35;;;;;;;;;3.00;2.00;;;;;23.34;51.52;98228.09;4922423;28;102350;-81
2021/07/03 00:04:03;;;;;;;;;2.00;2.00;;;;;23.32;51.59;98226.75;4914185;28;104602;-82
2021/07/03 00:06:36;;;;;;;;;3.00;3.00;;;;;23.32;51.64;98233.09;4902945;28;103473;-81
2021/07/03 00:09:08;;;;;;;;;2.67;2.00;;;;;23.33;51.61;98231.13;4931837;28;107834;-82
2021/07/03 00:11:45;;;;;;;;;1.67;1.67;;;;;23.33;51.41;98233.88;4922274;28;102163;-81
2021/07/03 00:14:18;;;;;;;;;2.33;1.67;;;;;23.32;51.50;98230.34;4920612;28;102230;-81
2021/07/03 00:16:54;;;;;;;;;1.33;1.33;;;;;23.30;51.04;98229.78;4934735;28;102755;-81
2021/07/03 00:19:27;;;;;;;;;3.00;2.67;;;;;23.29;51.26;98227.31;4928420;28;104932;-81
2021/07/03 00:22:03;;;;;;;;;1.33;1.33;;;;;23.27;51.40;98224.03;4921278;28;103414;-81
2021/07/03 00:24:35;;;;;;;;;2.00;2.00;;;;;23.27;51.29;98229.56;4926369;28;102683;-81
2021/07/03 00:27:11;;;;;;;;;4.00;3.00;;;;;23.28;51.11;98228.44;4932030;28;103293;-81
2021/07/03 00:29:44;;;;;;;;;2.00;2.00;;;;;23.27;51.09;98229.56;4932994;28;106494;-82
2021/07/03 00:32:16;;;;;;;;;2.00;1.00;;;;;23.27;50.94;98224.03;4938493;28;102113;-82
2021/07/03 00:34:53;;;;;;;;;2.33;2.33;;;;;23.26;51.15;98222.38;4947172;28;102443;-82
2021/07/03 00:37:25;;;;;;;;;2.00;2.00;;;;;23.25;51.01;98231.78;4937503;28;101382;-81
2021/07/03 00:40:01;;;;;;;;;2.67;2.00;;;;;23.25;51.23;98231.78;4949005;28;102623;-80
2021/07/03 00:42:32;;;;;;;;;1.00;1.00;;;;;23.25;50.91;98229.03;4953847;28;102394;-81
2021/07/03 00:45:00;;;;;;;;;1.33;1.33;;;;;23.25;51.06;98231.78;4941732;28;101845;-81
2021/07/03 00:47:27;;;;;;;;;2.00;2.00;;;;;23.22;50.99;98232.38;4950314;28;104791;-82
2021/07/03 00:49:55;;;;;;;;;3.00;2.00;;;;;23.21;50.93;98237.06;4943969;28;102851;-81
2021/07/03 00:52:22;;;;;;;;;2.00;2.00;;;;;23.21;51.35;98230.72;4946303;28;102048;-81
2021/07/03 00:54:49;;;;;;;;;2.00;2.00;;;;;23.20;51.52;98240.94;4952395;28;101962;-82
2021/07/03 00:57:16;;;;;;;;;1.00;1.00;;;;;23.19;51.11;98238.47;4936166;28;102208;-81
2021/07/03 00:59:45;;;;;;;;;2.00;1.67;;;;;23.19;51.12;98244.78;4940738;28;103088;-81
2021/07/03 01:02:13;;;;;;;;;2.67;2.00;;;;;23.18;51.02;98242.34;4922918;28;102194;-81
2021/07/03 01:04:41;;;;;;;;;1.00;1.00;;;;;23.16;51.08;98239.88;4926952;28;102140;-81
2021/07/03 01:07:09;;;;;;;;;1.67;1.67;;;;;23.16;51.33;98236.28;4916064;28;102770;-82
2021/07/03 01:09:39;;;;;;;;;4.67;2.67;;;;;23.14;51.35;98240.16;4929619;28;104591;-82
2021/07/03 01:12:20;;;;;;;;;1.33;1.33;;;;;23.16;50.96;98233.53;4874960;28;102840;-80
2021/07/03 01:14:59;;;;;;;;;1.67;1.67;;;;;23.13;50.85;98219.22;4913782;28;102105;-81
2021/07/03 01:17:32;;;;;;;;;3.00;3.00;;;;;23.14;51.00;98231.06;4923572;28;104359;-81
2021/07/03 01:20:18;;;;;;;;;4.67;3.00;;;;;23.11;50.80;98226.13;4926531;28;109237;-81
2021/07/03 01:22:54;;;;;;;;;2.00;2.00;;;;;23.10;50.93;98219.78;4860732;28;111321;-82
2021/07/03 01:25:27;;;;;;;;;1.33;1.33;;;;;23.12;50.74;98225.00;4921403;28;103640;-81
2021/07/03 01:28:06;;;;;;;;;1.67;1.67;;;;;23.12;50.96;98233.28;4914600;28;103851;-81
2021/07/03 01:30:42;;;;;;;;;2.00;2.00;;;;;23.12;51.03;98233.28;4911244;28;109899;-81
2021/07/03 01:33:17;;;;;;;;;2.00;2.00;;;;;23.10;50.74;98235.50;4909143;28;102475;-82
2021/07/03 01:35:53;;;;;;;;;2.00;2.00;;;;;23.10;51.00;98241.03;4852983;28;102664;-81
2021/07/03 01:38:34;;;;;;;;;2.00;2.00;;;;;23.08;50.73;98238.56;4924325;28;102776;-81
2021/07/03 01:41:11;;;;;;;;;2.00;2.00;;;;;23.09;50.77;98236.63;4911475;28;103263;-81
2021/07/03 01:43:51;;;;;;;;;2.00;2.00;;;;;23.08;50.71;98233.06;4921190;28;102207;-81
2021/07/03 01:46:23;;;;;;;;;2.33;2.33;;;;;23.05;50.89;98230.88;4931972;28;102316;-81
2021/07/03 01:49:05;;;;;;;;;2.00;2.00;;;;;23.06;50.76;98234.44;4913627;28;102761;-82
2021/07/03 01:51:32;;;;;;;;;2.00;1.67;;;;;23.06;50.84;98238.03;4931993;28;104399;-81
2021/07/03 01:53:59;;;;;;;;;0.67;0.67;;;;;23.06;50.72;98237.19;4930174;28;103566;-81
2021/07/03 01:56:26;;;;;;;;;2.00;2.00;;;;;23.05;50.74;98241.91;4912428;28;102483;-81
2021/07/03 01:58:53;;;;;;;;;2.00;2.00;;;;;23.04;50.87;98243.03;4922417;28;105250;-82
2021/07/03 02:01:21;;;;;;;;;1.33;1.33;;;;;22.97;50.88;98234.25;4923862;28;104469;-81
2021/07/03 02:03:48;;;;;;;;;3.00;2.33;;;;;23.02;50.87;98233.38;4919888;28;102473;-81
2021/07/03 02:06:15;;;;;;;;;1.33;1.33;;;;;23.02;51.03;98236.97;4921993;28;102770;-81
2021/07/03 02:08:42;;;;;;;;;3.00;2.00;;;;;23.02;51.03;98238.91;4930730;28;102587;-82
2021/07/03 02:11:09;;;;;;;;;1.67;1.67;;;;;23.02;50.69;98238.91;4918868;28;108940;-81
2021/07/03 02:13:37;;;;;;;;;2.00;2.00;;;;;22.99;50.91;98234.81;4927724;28;102535;-82
2021/07/03 02:16:05;;;;;;;;;2.00;2.00;;;;;23.00;50.91;98238.38;4931313;28;103938;-81
2021/07/03 02:18:32;;;;;;;;;2.00;1.33;;;;;22.99;51.06;98245.84;4923111;28;102629;-81
2021/07/03 02:21:03;;;;;;;;;1.67;1.67;;;;;22.99;50.85;98248.59;4925912;28;104105;-81
2021/07/03 02:23:30;;;;;;;;;2.00;2.00;;;;;22.99;50.93;98239.50;4921850;28;104029;-81
2021/07/03 02:25:57;;;;;;;;;2.00;1.67;;;;;22.99;50.84;98239.50;4916633;28;103261;-82
2021/07/03 02:28:24;;;;;;;;;1.67;1.67;;;;;22.97;50.72;98242.53;4914418;28;102573;-81
2021/07/03 02:30:54;;;;;;;;;3.00;2.00;;;;;22.97;50.62;98248.03;4914692;28;103856;-81
2021/07/03 02:33:22;;;;;;;;;1.33;1.33;;;;;22.96;50.71;98240.91;4924374;28;103568;-82
2021/07/03 02:35:49;;;;;;;;;2.00;2.00;;;;;22.84;50.88;98221.13;4932192;28;112112;-82
2021/07/03 02:38:17;;;;;;;;;3.00;2.00;;;;;22.95;50.78;98233.75;4929015;28;103130;-81
2021/07/03 02:40:45;;;;;;;;;3.33;3.33;;;;;22.94;50.88;98232.09;4911647;28;105360;-81
2021/07/03 02:43:13;;;;;;;;;1.00;1.00;;;;;22.93;51.01;98241.47;4937375;28;102663;-81
2021/07/03 02:45:40;;;;;;;;;1.33;1.33;;;;;22.78;50.95;98221.50;4921316;28;102619;-81
2021/07/03 02:48:07;;;;;;;;;1.67;1.67;;;;;22.91;51.05;98237.38;4927345;28;102693;-81
2021/07/03 02:50:34;;;;;;;;;1.67;1.33;;;;;22.90;51.11;98241.22;4919007;28;104255;-82
2021/07/03 02:53:01;;;;;;;;;2.00;2.00;;;;;22.89;51.17;98234.06;4919272;28;102360;-81
2021/07/03 02:55:28;;;;;;;;;2.00;2.00;;;;;22.89;51.13;98234.88;4911543;28;102295;-88
2021/07/03 02:57:56;;;;;;;;;3.00;2.00;;;;;22.90;51.14;98243.97;4933949;28;103311;-88
2021/07/03 03:00:24;;;;;;;;;2.00;2.00;;;;;22.90;50.95;98235.72;4914764;28;104178;-88
2021/07/03 03:02:51;;;;;;;;;3.33;2.33;;;;;22.89;51.04;98234.06;4926579;28;102363;-87
2021/07/03 03:05:18;;;;;;;;;2.33;2.33;;;;;22.90;51.11;98242.06;4928284;28;102507;-88
2021/07/03 03:07:45;;;;;;;;;2.00;2.00;;;;;22.88;50.99;98241.50;4918926;28;102721;-85
2021/07/03 03:10:14;;;;;;;;;2.33;2.00;;;;;22.89;51.14;98240.41;4938526;28;108876;-88
2021/07/03 03:12:41;;;;;;;;;2.00;2.00;;;;;22.88;51.00;98237.91;4928529;28;102427;-89
2021/07/03 03:15:10;;;;;;;;;3.33;3.33;;;;;22.88;51.25;98238.75;4921293;28;102115;-88
2021/07/03 03:17:38;;;;;;;;;3.00;2.67;;;;;22.89;50.96;98245.91;4933786;28;103317;-88
2021/07/03 03:20:07;;;;;;;;;2.00;2.00;;;;;22.90;50.85;98244.81;4897386;28;104415;-88
2021/07/03 03:22:35;;;;;;;;;3.00;3.00;;;;;22.76;51.08;98221.78;4926037;28;102712;-88
2021/07/03 03:25:03;;;;;;;;;4.00;4.00;;;;;22.90;50.94;98252.25;4897039;28;102364;-81
2021/07/03 03:27:32;;;;;;;;;3.00;2.33;;;;;22.90;50.86;98246.75;4918001;28;103224;-81
2021/07/03 03:30:01;;;;;;;;;3.00;3.00;;;;;22.87;50.81;98234.38;4887391;28;108058;-81
2021/07/03 03:32:28;;;;;;;;;3.00;2.33;;;;;22.86;50.83;98238.22;4924430;28;102494;-80
2021/07/03 03:34:56;;;;;;;;;3.33;3.33;;;;;22.86;51.11;98234.66;4919244;28;102229;-81
2021/07/03 03:37:23;;;;;;;;;1.00;0.33;;;;;22.84;51.00;98236.84;4919882;28;102427;-82
2021/07/03 03:39:50;;;;;;;;;2.00;2.00;;;;;22.85;51.10;98236.59;4933527;28;104076;-87
2021/07/03 03:42:17;;;;;;;;;3.00;3.00;;;;;22.86;51.18;98235.47;4925606;28;102397;-88
2021/07/03 03:44:45;;;;;;;;;4.00;4.00;;;;;22.87;51.25;98231.63;4924613;28;102449;-87
2021/07/03 03:47:12;;;;;;;;;3.67;3.00;;;;;22.86;51.24;98243.75;4927110;28;102252;-87
2021/07/03 03:49:39;;;;;;;;;4.00;4.00;;;;;22.86;51.14;98252.03;4916800;28;104802;-86
2021/07/03 03:52:09;;;;;;;;;4.67;4.00;;;;;22.80;51.51;98231.09;4914330;28;104488;-87
2021/07/03 03:54:36;;;;;;;;;4.33;4.00;;;;;22.83;51.15;98247.06;4923395;28;103439;-81
2021/07/03 03:57:24;;;;;;;;;4.33;4.33;;;;;22.84;51.25;98236.84;4923600;28;102054;-81
2021/07/03 03:59:52;;;;;;;;;4.67;4.00;;;;;22.83;51.29;98240.75;4916878;28;109046;-81
2021/07/03 04:02:22;;;;;;;;;4.00;4.00;;;;;22.84;51.22;98239.63;4921117;28;102660;-82
2021/07/03 04:04:50;;;;;;;;;5.33;4.00;;;;;22.84;51.26;98229.41;4926069;28;102531;-81
2021/07/03 04:07:21;;;;;;;;;4.00;4.00;;;;;22.81;51.50;98241.03;4914577;28;104106;-82
2021/07/03 04:09:50;;;;;;;;;3.33;3.33;;;;;22.81;51.10;98238.28;4929886;28;104108;-81
2021/07/03 04:12:18;;;;;;;;;5.00;4.00;;;;;22.84;51.17;98236.84;4919877;28;103412;-81
2021/07/03 04:14:46;;;;;;;;;4.67;4.67;;;;;22.84;51.17;98237.69;4927401;28;103759;-81
2021/07/03 04:17:13;;;;;;;;;5.33;5.00;;;;;22.83;51.19;98244.31;4919026;28;102411;-81
2021/07/03 04:19:40;;;;;;;;;6.00;6.00;;;;;22.84;51.05;98240.44;4915984;28;104057;-81
2021/07/03 04:22:08;;;;;;;;;5.00;4.00;;;;;22.85;51.10;98246.78;4924969;28;102735;-81
2021/07/03 04:24:35;;;;;;;;;6.33;6.00;;;;;22.84;51.36;98245.97;4932340;28;103076;-87
2021/07/03 04:27:03;;;;;;;;;5.00;4.67;;;;;22.83;51.21;98238.00;4925227;28;102766;-86
2021/07/03 04:29:32;;;;;;;;;5.00;5.00;;;;;22.83;51.35;98241.53;4928761;28;104710;-87
2021/07/03 04:31:59;;;;;;;;;6.00;5.00;;;;;22.82;51.12;98239.94;4931618;28;102220;-87
2021/07/03 04:34:26;;;;;;;;;5.00;4.33;;;;;22.85;51.18;98230.25;4858523;28;103133;-87
2021/07/03 04:36:54;;;;;;;;;6.67;5.00;;;;;22.84;51.06;98229.41;4922690;28;102781;-87
2021/07/03 04:39:22;;;;;;;;;6.00;4.00;;;;;22.84;51.18;98232.16;4909560;28;104766;-87
2021/07/03 04:41:51;;;;;;;;;4.33;4.33;;;;;22.73;51.28;98216.84;4909012;28;102298;-87
2021/07/03 04:44:18;;;;;;;;;4.00;4.00;;;;;22.83;51.18;98225.00;4923456;28;102362;-87
2021/07/03 04:46:46;;;;;;;;;4.33;4.33;;;;;22.84;51.14;98226.66;4928468;28;102090;-86
2021/07/03 04:49:14;;;;;;;;;6.00;5.00;;;;;22.84;51.24;98231.34;4920902;28;108719;-87
2021/07/03 04:51:41;;;;;;;;;4.67;4.00;;;;;22.81;51.27;98221.72;4922412;28;102165;-87
2021/07/03 04:54:09;;;;;;;;;3.67;3.00;;;;;22.82;51.35;98236.34;4929780;28;102178;-81
2021/07/03 04:56:36;;;;;;;;;4.67;4.00;;;;;22.81;51.33;98227.25;4923740;28;102132;-81
2021/07/03 04:59:03;;;;;;;;;3.33;3.33;;;;;22.79;51.40;98223.94;4925403;28;104308;-80
2021/07/03 05:01:30;;;;;;;;;4.67;4.67;;;;;22.82;51.41;98222.56;4919572;28;102727;-81
2021/07/03 05:03:58;;;;;;;;;4.33;4.33;;;;;22.83;51.42;98226.97;4922817;28;103536;-81
2021/07/03 05:06:25;;;;;;;;;5.67;5.67;;;;;22.85;51.07;98236.59;4928439;28;102532;-81
2021/07/03 05:08:52;;;;;;;;;5.00;5.00;;;;;22.85;51.21;98228.31;4916753;28;103794;-81
2021/07/03 05:11:19;;;;;;;;;5.33;4.67;;;;;22.84;51.48;98232.16;4919708;28;104525;-81
2021/07/03 05:13:46;;;;;;;;;5.67;4.00;;;;;22.84;51.33;98231.34;4934823;28;102514;-82
2021/07/03 05:16:16;;;;;;;;;5.00;5.00;;;;;22.75;51.32;98214.59;4923486;28;102571;-82
2021/07/03 05:18:43;;;;;;;;;6.00;5.33;;;;;22.86;51.15;98231.91;4927822;28;108763;-81
2021/07/03 05:21:10;;;;;;;;;4.00;4.00;;;;;22.85;51.13;98231.06;4924352;28;102541;-81
2021/07/03 05:23:37;;;;;;;;;5.33;5.00;;;;;22.85;50.87;98225.56;4923633;28;102595;-81
2021/07/03 05:26:04;;;;;;;;;5.00;4.67;;;;;22.84;51.40;98226.66;4937761;28;102259;-81
2021/07/03 05:28:31;;;;;;;;;6.00;5.67;;;;;22.85;51.18;98233.81;4924696;28;104301;-81
2021/07/03 05:30:59;;;;;;;;;4.00;4.00;;;;;22.85;51.25;98231.06;4916226;28;102639;-82
2021/07/03 05:33:26;;;;;;;;;6.00;5.33;;;;;22.86;51.20;98229.97;4929265;28;102249;-81
2021/07/03 05:35:53;;;;;;;;;4.00;4.00;;;;;22.87;51.20;98231.63;4915621;28;103735;-81
2021/07/03 05:38:20;;;;;;;;;4.00;4.00;;;;;22.87;51.25;98237.13;4915467;28;104952;-81
2021/07/03 05:40:47;;;;;;;;;5.67;5.67;;;;;22.88;51.18;98226.91;4937231;28;102255;-81
2021/07/03 05:43:15;;;;;;;;;4.00;4.00;;;;;22.86;51.15;98224.44;4924470;28;103783;-81
2021/07/03 05:45:43;;;;;;;;;4.67;4.67;;;;;22.87;51.37;98234.38;4916524;28;102847;-81
2021/07/03 05:48:10;;;;;;;;;6.00;5.00;;;;;22.88;51.32;98238.75;4930301;28;103986;-81
2021/07/03 05:50:37;;;;;;;;;4.67;4.00;;;;;22.89;51.42;98234.06;4921691;28;102138;-81
2021/07/03 05:53:04;;;;;;;;;5.00;4.67;;;;;22.89;51.14;98234.88;4924117;28;103389;-81
2021/07/03 05:55:31;;;;;;;;;3.33;3.00;;;;;22.89;51.13;98234.88;4922017;28;103522;-81
2021/07/03 05:57:58;;;;;;;;;4.00;4.00;;;;;22.90;51.19;98242.06;4911990;28;104324;-82
2021/07/03 06:00:26;;;;;;;;;5.00;5.00;;;;;22.91;51.54;98248.41;4915833;28;102075;-82
2021/07/03 06:02:53;;;;;;;;;5.67;4.67;;;;;22.89;51.14;98237.63;4922382;28;102417;-81
2021/07/03 06:05:24;;;;;;;;;7.00;6.00;;;;;22.87;51.33;98239.06;4921040;28;102339;-81
2021/07/03 06:07:52;;;;;;;;;4.33;4.00;;;;;22.89;51.26;98245.91;4913689;28;104381;-81
2021/07/03 06:10:21;;;;;;;;;4.00;4.00;;;;;22.89;51.51;98250.59;4917193;28;102242;-81
2021/07/03 06:12:48;;;;;;;;;4.00;4.00;;;;;22.88;51.23;98244.25;4914816;28;103633;-81
2021/07/03 06:15:16;;;;;;;;;6.00;6.00;;;;;22.90;51.10;98247.56;4911991;28;102216;-81
2021/07/03 06:17:43;;;;;;;;;5.00;4.67;;;;;22.90;51.45;98249.50;4916429;28;104187;-81
2021/07/03 06:20:11;;;;;;;;;6.00;5.67;;;;;22.89;51.35;98251.44;4918937;28;102826;-81
2021/07/03 06:22:38;;;;;;;;;3.67;3.00;;;;;22.92;51.44;98256.34;4931515;28;102195;-81
2021/07/03 06:25:07;;;;;;;;;6.33;5.67;;;;;22.92;51.31;98256.34;4933538;28;103390;-81
2021/07/03 06:27:39;;;;;;;;;6.00;5.00;;;;;22.92;51.14;98253.59;4918453;28;104310;-81
2021/07/03 06:30:08;;;;;;;;;5.00;5.00;;;;;22.92;51.28;98255.56;4928981;28;102406;-81
2021/07/03 06:32:35;;;;;;;;;6.00;6.00;;;;;22.92;51.20;98270.13;4873860;28;102386;-81
2021/07/03 06:35:04;;;;;;;;;4.00;4.00;;;;;22.94;51.22;98264.34;4901399;28;102803;-81
2021/07/03 06:37:31;;;;;;;;;6.67;5.67;;;;;22.93;51.25;98269.03;4919767;28;104104;-81
2021/07/03 06:39:58;;;;;;;;;5.67;5.67;;;;;22.91;52.01;98264.94;4930377;28;102236;-81
2021/07/03 06:42:26;;;;;;;;;4.00;3.67;;;;;22.93;51.75;98263.53;4917063;28;105816;-81
2021/07/03 06:44:53;;;;;;;;;4.67;4.67;;;;;22.93;51.66;98269.03;4920532;28;102243;-82
2021/07/03 06:47:21;;;;;;;;;4.67;3.67;;;;;22.94;51.39;98269.88;4924027;28;104404;-82
2021/07/03 06:49:50;;;;;;;;;7.00;6.67;;;;;22.95;51.32;98280.63;4917118;28;102474;-82
2021/07/03 06:52:18;;;;;;;;;5.00;4.33;;;;;22.96;51.33;98273.16;4926593;28;102267;-82
2021/07/03 06:54:46;;;;;;;;;6.00;5.67;;;;;22.98;51.22;98282.78;4924980;28;102600;-82
2021/07/03 06:57:13;;;;;;;;;5.00;5.00;;;;;22.98;51.47;98280.03;4926546;28;104222;-82
2021/07/03 06:59:40;;;;;;;;;6.33;6.00;;;;;22.99;51.34;98276.16;4928961;28;103911;-83
2021/07/03 07:02:07;;;;;;;;;6.33;6.00;;;;;23.01;51.47;98284.16;4916501;28;102450;-82
2021/07/03 07:04:35;;;;;;;;;5.00;5.00;;;;;23.00;51.44;98279.75;4923417;28;102341;-82
2021/07/03 07:07:02;;;;;;;;;4.00;3.67;;;;;23.00;51.39;98277.00;4931304;28;104203;-83
2021/07/03 07:09:29;;;;;;;;;5.00;5.00;;;;;23.01;51.50;98271.16;4919433;28;103510;-82
2021/07/03 07:11:58;;;;;;;;;6.00;4.33;;;;;23.01;51.47;98281.41;4894573;28;104918;-82
2021/07/03 07:14:26;;;;;;;;;6.00;5.67;;;;;23.01;51.60;98282.19;4931786;28;102505;-82
2021/07/03 07:16:53;;;;;;;;;5.00;4.33;;;;;23.03;51.42;98274.47;4917210;28;104131;-83
2021/07/03 07:19:21;;;;;;;;;6.33;6.00;;;;;23.02;51.66;98275.56;4912802;28;104673;-83
2021/07/03 07:21:48;;;;;;;;;3.33;3.33;;;;;23.05;51.58;98275.03;4932055;28;102247;-83
2021/07/03 07:24:15;;;;;;;;;4.00;4.00;;;;;23.07;51.36;98280.22;4904014;28;102200;-82
2021/07/03 07:26:42;;;;;;;;;5.67;5.00;;;;;23.08;51.40;98281.88;4915132;28;104031;-82
2021/07/03 07:29:10;;;;;;;;;5.00;5.00;;;;;23.07;51.56;98281.06;4939553;28;103704;-82
2021/07/03 07:31:37;;;;;;;;;5.00;5.00;;;;;23.09;51.46;98284.34;4926854;28;103570;-83
2021/07/03 07:34:05;;;;;;;;;4.67;4.67;;;;;23.10;51.36;98291.50;4932147;28;102728;-87
2021/07/03 07:36:32;;;;;;;;;6.33;5.33;;;;;23.10;51.53;98285.97;4931291;28;105161;-88
2021/07/03 07:38:59;;;;;;;;;5.67;5.00;;;;;23.11;51.52;98287.63;4917212;28;102424;-88
2021/07/03 07:41:27;;;;;;;;;4.67;4.00;;;;;22.92;51.54;98253.59;4902766;28;102198;-87
2021/07/03 07:43:54;;;;;;;;;5.67;4.67;;;;;23.12;51.67;98289.28;4903852;28;103497;-88
2021/07/03 07:46:21;;;;;;;;;5.33;5.00;;;;;23.13;51.49;98285.41;4919202;28;104957;-87
2021/07/03 07:48:48;;;;;;;;;7.00;6.00;;;;;23.14;51.71;98286.25;4928871;28;103017;-88
2021/07/03 07:51:17;;;;;;;;;4.00;3.67;;;;;23.14;51.65;98280.72;4912619;28;102343;-87
2021/07/03 07:53:44;;;;;;;;;5.67;5.67;;;;;23.16;51.64;98284.00;4918421;28;102555;-88
2021/07/03 07:56:12;;;;;;;;;4.67;4.67;;;;;23.17;51.67;98290.34;4915968;28;104082;-88
2021/07/03 07:58:39;;;;;;;;;4.33;4.33;;;;;23.17;51.72;98285.66;4893836;28;102225;-88
2021/07/03 08:01:06;;;;;;;;;6.00;4.67;;;;;23.18;51.45;98281.78;4923605;28;102169;-88
2021/07/03 08:03:33;;;;;;;;;4.33;4.33;;;;;23.18;51.67;98287.31;4927697;28;102374;-88
2021/07/03 08:06:00;;;;;;;;;5.00;5.00;;;;;23.20;51.72;98289.75;4920569;28;104379;-82
2021/07/03 08:08:28;;;;;;;;;5.00;5.00;;;;;23.20;51.56;98289.75;4926468;28;102149;-82
2021/07/03 08:10:55;;;;;;;;;5.00;5.00;;;;;23.21;51.70;98285.88;4931117;28;103605;-83
2021/07/03 08:13:22;;;;;;;;;5.50;5.00;;;;;23.20;51.74;98279.53;4922036;28;103325;-82
2021/07/03 08:15:50;;;;;;;;;5.00;4.67;;;;;23.20;51.70;98281.47;4921139;28;104244;-82
2021/07/03 08:18:20;;;;;;;;;4.33;4.33;;;;;23.20;51.67;98285.06;4929007;28;103583;-82
2021/07/03 08:20:47;;;;;;;;;5.00;5.00;;;;;23.21;51.68;98275.69;4922212;28;110464;-83
2021/07/03 08:23:15;;;;;;;;;6.00;6.00;;;;;23.24;51.80;98282.53;4913047;28;102245;-82
2021/07/03 08:25:42;;;;;;;;;6.67;5.67;;;;;23.22;51.60;98271.81;4921239;28;104106;-82
2021/07/03 08:28:09;;;;;;;;;6.00;5.00;;;;;23.24;51.43;98285.31;4922521;28;103686;-82
2021/07/03 08:30:37;;;;;;;;;5.00;5.00;;;;;23.26;51.73;98283.91;4927138;28;103196;-83
2021/07/03 08:33:05;;;;;;;;;5.00;5.00;;;;;23.26;51.62;98281.16;4929895;28;103674;-81
2021/07/03 08:35:33;;;;;;;;;5.67;5.00;;;;;23.27;51.48;98279.22;4921387;28;105670;-82
2021/07/03 08:38:00;;;;;;;;;4.67;4.67;;;;;23.29;51.70;98271.47;4924175;28;102140;-82
2021/07/03 08:40:30;;;;;;;;;5.33;5.00;;;;;23.30;51.69;98275.88;4925260;28;102600;-82
2021/07/03 08:42:57;;;;;;;;;3.67;3.67;;;;;23.29;51.79;98268.69;4923429;28;102781;-82
2021/07/03 08:45:24;;;;;;;;;6.67;5.33;;;;;23.30;51.84;98275.88;4923921;28;103634;-82
2021/07/03 08:47:52;;;;;;;;;5.00;5.00;;;;;23.32;51.65;98276.41;4931882;28;103890;-82
2021/07/03 08:50:19;;;;;;;;;5.00;4.00;;;;;23.32;51.62;98273.66;4915517;28;106541;-82
2021/07/03 08:52:46;;;;;;;;;7.33;5.00;;;;;23.33;51.68;98275.28;4919028;28;102566;-82
2021/07/03 08:55:26;;;;;;;;;5.00;5.00;;;;;23.33;51.86;98275.28;4929737;28;104013;-83
2021/07/03 08:58:02;;;;;;;;;5.00;5.00;;;;;23.33;51.50;98270.59;4921756;28;103138;-82
2021/07/03 09:00:35;;;;;;;;;4.00;4.00;;;;;23.34;51.76;98268.66;4932184;28;102273;-82
2021/07/03 09:03:18;;;;;;;;;4.67;4.67;;;;;23.35;51.84;98278.59;4927509;28;105462;-83
2021/07/03 09:05:50;;;;;;;;;7.67;6.33;;;;;23.34;51.61;98283.28;4922347;28;104062;-82
2021/07/03 09:08:18;;;;;;;;;4.00;4.00;;;;;23.35;51.67;98275.81;4922054;28;103663;-82
2021/07/03 09:10:46;;;;;;;;;5.67;5.33;;;;;23.35;51.77;98281.34;4923983;28;103401;-82
2021/07/03 09:13:15;;;;;;;;;4.33;4.33;;;;;23.35;51.65;98275.81;4916646;28;102450;-82
2021/07/03 09:15:44;;;;;;;;;5.33;4.00;;;;;23.35;51.83;98265.63;4921025;28;103974;-82
2021/07/03 09:18:13;;;;;;;;;4.00;3.67;;;;;23.36;51.88;98266.44;4910311;28;102463;-82
2021/07/03 09:20:52;;;;;;;;;4.00;4.00;;;;;23.39;51.80;98254.81;4925079;28;103691;-82
2021/07/03 09:23:29;;;;;;;;;4.67;4.00;;;;;23.40;51.87;98261.97;4940353;28;102464;-82
2021/07/03 09:26:05;;;;;;;;;5.00;5.00;;;;;23.41;51.62;98263.63;4931934;28;108962;-83
2021/07/03 09:28:34;;;;;;;;;5.00;4.00;;;;;23.41;51.79;98255.34;4918993;28;107904;-82
2021/07/03 09:31:02;;;;;;;;;6.00;5.33;;;;;23.36;51.38;98239.66;4921231;28;102902;-82
2021/07/03 09:33:31;;;;;;;;;4.67;4.67;;;;;23.42;51.80;98254.22;4932984;28;102644;-82
2021/07/03 09:36:05;;;;;;;;;4.00;4.00;;;;;23.44;51.82;98252.84;4922013;28;104146;-88
2021/07/03 09:38:37;;;;;;;;;4.00;4.00;;;;;23.46;51.56;98249.81;4919400;28;105551;-88
2021/07/03 09:41:17;;;;;;;;;5.33;4.33;;;;;23.46;51.56;98250.59;4930877;28;103178;-89
2021/07/03 09:43:50;;;;;;;;;5.00;4.33;;;;;23.47;51.65;98251.44;4924645;28;112329;-89
2021/07/03 09:46:48;;;;;;;;;5.00;5.00;;;;;23.46;52.17;98233.25;4911041;28;104371;-88
2021/07/03 09:49:17;;;;;;;;;5.33;5.00;;;;;23.45;52.03;98237.13;4871287;28;102634;-89
2021/07/03 09:51:46;;;;;;;;;4.00;4.00;;;;;23.38;52.10;98217.28;4926539;28;102610;-88
2021/07/03 09:54:15;;;;;;;;;6.00;5.00;;;;;23.47;51.75;98234.88;4926468;28;102292;-89
2021/07/03 09:56:43;;;;;;;;;5.00;5.00;;;;;23.44;52.10;98229.94;4926950;28;104156;-89
2021/07/03 09:59:12;;;;;;;;;6.00;5.33;;;;;23.46;51.79;98241.53;4900248;28;102607;-88
2021/07/03 10:01:41;;;;;;;;;6.67;6.00;;;;;23.47;51.87;98235.69;4920371;28;111190;-88
2021/07/03 10:04:08;;;;;;;;;5.00;5.00;;;;;23.47;51.76;98232.94;4935045;28;103400;-83
2021/07/03 10:06:51;;;;;;;;;4.33;4.33;;;;;23.49;51.76;98235.41;4918368;28;104091;-83
2021/07/03 10:09:48;;;;;;;;;5.67;5.33;;;;;23.34;51.63;98202.44;4924177;28;102788;-83
2021/07/03 10:23:04;;;;;;;;;3.33;3.33;;;;;23.55;51.63;98237.81;5137842;22;102557;-84
2021/07/03 10:25:44;;;;;;;;;5.67;4.00;;;;;23.54;51.69;98221.56;4911681;28;102254;-84
2021/07/03 10:28:13;;;;;;;;;5.00;5.00;;;;;23.54;51.84;98224.31;4909841;28;104056;-84
2021/07/03 10:30:42;;;;;;;;;5.00;4.00;;;;;23.58;51.77;98225.38;4924698;28;102509;-84
2021/07/03 10:33:22;;;;;;;;;4.33;4.33;;;;;23.56;51.77;98219.31;4903367;28;109598;-84
2021/07/03 10:35:53;;;;;;;;;3.33;3.33;;;;;23.54;51.82;98208.59;4913116;28;104330;-84
2021/07/03 10:38:25;;;;;;;;;4.00;4.00;;;;;23.54;51.84;98216.03;4929091;28;109132;-84
2021/07/03 10:41:19;;;;;;;;;5.00;4.33;;;;;23.53;51.93;98208.88;4909926;28;102134;-83
2021/07/03 10:44:07;;;;;;;;;4.00;4.00;;;;;23.55;51.81;98203.84;4848176;28;104397;-84
2021/07/03 10:46:38;;;;;;;;;3.00;3.00;;;;;23.55;51.75;98209.38;4845113;28;104478;-84
2021/07/03 10:49:14;;;;;;;;;4.67;4.67;;;;;23.53;52.04;98195.91;4919894;28;103144;-84
2021/07/03 10:51:47;;;;;;;;;5.00;4.67;;;;;23.56;51.77;98200.00;4919027;28;102897;-84
2021/07/03 10:54:18;;;;;;;;;4.67;4.67;;;;;23.58;51.86;98183.16;4914242;28;103642;-84
2021/07/03 10:57:05;;;;;;;;;6.33;5.33;;;;;23.58;51.86;98192.25;4909887;28;102710;-84
2021/07/03 10:59:38;;;;;;;;;4.67;4.67;;;;;23.58;51.79;98177.63;4864593;28;108808;-83
2021/07/03 11:02:12;;;;;;;;;5.00;5.00;;;;;23.60;51.68;98178.97;4910726;28;102669;-82
2021/07/03 11:04:52;;;;;;;;;4.00;4.00;;;;;23.61;51.78;98182.53;4919876;28;105580;-82
2021/07/03 11:07:33;;;;;;;;;4.00;3.00;;;;;23.61;51.63;98169.56;4910381;28;103753;-82
2021/07/03 11:10:27;;;;;;;;;5.00;5.00;;;;;23.62;51.78;98171.22;4831502;28;108848;-84
2021/07/03 11:12:56;;;;;;;;;4.00;3.00;;;;;23.64;51.65;98180.00;4901927;28;103522;-83
2021/07/03 11:15:26;;;;;;;;;4.00;4.00;;;;;23.62;51.67;98170.38;4919080;28;102646;-83
2021/07/03 11:17:58;;;;;;;;;3.00;3.00;;;;;23.61;51.75;98185.31;4900919;28;102592;-83
2021/07/03 11:20:31;;;;;;;;;6.33;6.00;;;;;23.63;51.65;98183.09;4902007;28;108212;-83
2021/07/03 11:22:59;;;;;;;;;5.00;4.33;;;;;23.63;51.67;98175.63;4912682;28;103474;-82
2021/07/03 11:25:43;;;;;;;;;4.33;3.67;;;;;23.63;51.74;98175.63;4905573;28;103565;-82
2021/07/03 11:28:16;;;;;;;;;4.67;4.67;;;;;23.66;51.74;98177.78;4921613;28;102459;-82
2021/07/03 11:30:59;;;;;;;;;4.33;4.00;;;;;23.66;52.06;98172.25;4924415;28;108017;-82
2021/07/03 11:33:28;;;;;;;;;3.67;3.67;;;;;23.65;51.79;98176.13;4904115;28;102258;-83
2021/07/03 11:35:55;;;;;;;;;4.00;4.00;;;;;23.65;51.90;98187.19;4911160;28;103110;-82
2021/07/03 11:38:23;;;;;;;;;4.67;4.00;;;;;23.64;51.73;98174.47;4917946;28;102247;-82
2021/07/03 11:40:54;;;;;;;;;3.67;3.67;;;;;23.66;51.74;98180.53;4916261;28;108788;-83
2021/07/03 11:43:21;;;;;;;;;2.67;2.67;;;;;23.65;51.73;98173.38;4914755;28;103989;-82
2021/07/03 11:45:50;;;;;;;;;3.00;3.00;;;;;23.66;51.83;98176.97;4895862;28;102624;-83
2021/07/03 11:48:19;;;;;;;;;4.67;4.33;;;;;23.68;51.86;98175.56;4912972;28;102586;-83